Time;durP1;ratioP1;P1;durP2;ratioP2;P2;SDS_P1;SDS_P2;PMS_P1;PMS_P2;Temp;Humidity;BMP_temperature;BMP_pressure;BME280_temperature;BME280_humidity;BME280_pressure;Samples;Min_cycle;Max_cycle;Signal;HPM_P1;HPM_P2
2022/09/05 00:00:06;;;;;;;3.77;2.90;;;;;;;18.01;90.34;155989.88;5051949;28;20741;-84
2022/09/05 00:02:49;;;;;;;3.97;3.20;;;;;;;17.99;90.56;155986.00;5053775;28;20453;-84
2022/09/05 00:05:41;;;;;;;4.47;2.80;;;;;;;17.95;90.86;155975.56;5068892;28;20430;-84
2022/09/05 00:08:14;;;;;;;4.37;3.40;;;;;;;17.94;90.64;155973.00;5061910;28;20439;-84
2022/09/05 00:10:48;;;;;;;3.70;3.40;;;;;;;17.91;89.82;155965.16;5053327;28;20415;-84
2022/09/05 00:13:21;;;;;;;4.23;3.60;;;;;;;17.88;90.49;155957.34;5068729;28;20569;-84
2022/09/05 00:15:59;;;;;;;5.20;3.20;;;;;;;17.85;90.80;155948.22;5068365;28;20517;-84
2022/09/05 00:18:47;;;;;;;3.70;3.40;;;;;;;17.80;92.37;155935.22;5051936;28;20449;-84
2022/09/05 00:21:23;;;;;;;3.53;3.23;;;;;;;17.74;93.08;155920.88;5051445;28;20533;-84
2022/09/05 00:24:02;;;;;;;3.37;2.93;;;;;;;17.72;92.03;155915.69;5051906;28;20553;-84
2022/09/05 00:26:38;;;;;;;3.57;2.97;;;;;;;17.72;91.74;155915.69;5051875;28;20415;-84
2022/09/05 00:29:19;;;;;;;3.70;2.93;;;;;;;17.69;92.25;155907.88;5034920;28;20451;-84
2022/09/05 00:31:57;;;;;;;3.13;2.80;;;;;;;17.69;91.72;155906.56;5051593;28;20439;-84
2022/09/05 00:34:37;;;;;;;4.97;3.30;;;;;;;17.68;90.97;155903.97;5048395;28;20593;-84
2022/09/05 00:37:04;;;;;;;3.30;3.00;;;;;;;17.69;90.00;155906.56;5031822;28;20530;-84
2022/09/05 00:39:34;;;;;;;3.40;3.10;;;;;;;17.72;88.64;155914.38;5015259;28;20451;-84
2022/09/05 00:42:09;;;;;;;3.90;3.30;;;;;;;17.74;89.39;155920.88;5032612;28;20934;-84
2022/09/05 00:44:49;;;;;;;3.30;3.00;;;;;;;17.76;89.17;155926.13;5031762;28;20441;-84
2022/09/05 00:47:23;;;;;;;3.10;2.80;;;;;;;17.74;88.83;155919.63;5032788;28;20424;-84
2022/09/05 00:49:54;;;;;;;3.23;2.93;;;;;;;17.77;89.34;155928.69;5040421;28;20872;-84
2022/09/05 00:52:29;;;;;;;3.60;3.30;;;;;;;17.72;90.33;155915.69;5052596;28;20434;-84
2022/09/05 00:55:04;;;;;;;3.57;3.27;;;;;;;17.68;91.31;155905.28;5068083;28;20454;-84
2022/09/05 00:57:48;;;;;;;4.73;3.40;;;;;;;17.62;92.71;155890.97;5067739;28;20496;-84
2022/09/05 01:00:16;;;;;;;3.53;3.23;;;;;;;17.60;90.97;155884.47;5067387;28;20454;-84
2022/09/05 01:03:21;;;;;;;3.90;3.50;;;;;;;17.62;91.11;155889.66;5052351;28;20420;-84
2022/09/05 01:06:20;;;;;;;3.63;3.03;;;;;;;17.64;90.64;155894.84;5033749;28;20439;-84
2022/09/05 01:09:09;;;;;;;3.70;3.40;;;;;;;17.63;90.57;155892.28;5050586;28;20549;-84
2022/09/05 01:11:48;;;;;;;3.83;3.50;;;;;;;17.58;92.10;155880.53;5067294;28;20446;-84
2022/09/05 01:14:27;;;;;;;3.30;3.00;;;;;;;17.54;91.91;155868.84;5067497;28;20491;-84
2022/09/05 01:17:19;;;;;;;3.50;3.20;;;;;;;17.51;91.75;155862.28;5049978;28;20877;-84
2022/09/05 01:19:59;;;;;;;3.57;3.27;;;;;;;17.46;92.06;155847.94;5032046;28;20934;-84
2022/09/05 01:22:43;;;;;;;4.37;3.40;;;;;;;17.44;93.15;155842.75;5047346;28;20511;-84
2022/09/05 01:25:27;;;;;;;4.63;3.20;;;;;;;17.41;93.37;155834.94;5051905;28;20538;-84
2022/09/05 01:27:59;;;;;;;3.20;2.90;;;;;;;17.38;93.35;155827.13;5067387;28;20443;-84
2022/09/05 01:30:29;;;;;;;3.53;3.23;;;;;;;17.37;93.21;155824.50;5067033;28;20795;-84
2022/09/05 01:33:02;;;;;;;4.63;3.77;;;;;;;17.39;93.30;155829.75;5067258;28;20470;-84
2022/09/05 01:35:41;;;;;;;3.57;3.00;;;;;;;17.47;90.22;155850.56;5051837;28;20895;-84
2022/09/05 01:38:11;;;;;;;3.53;3.23;;;;;;;17.45;92.87;155845.34;5067522;28;20545;-84
2022/09/05 01:40:45;;;;;;;7.10;3.60;;;;;;;17.42;91.15;155838.81;5049654;28;20453;-84
2022/09/05 01:43:22;;;;;;;3.33;3.03;;;;;;;17.40;91.80;155832.31;5050605;28;20497;-84
2022/09/05 01:45:51;;;;;;;2.97;2.70;;;;;;;17.33;92.27;155815.44;5067156;28;20438;-84
2022/09/05 01:48:31;;;;;;;3.53;3.23;;;;;;;17.39;88.98;155829.75;5051406;28;20520;-84
2022/09/05 01:51:09;;;;;;;3.67;3.37;;;;;;;17.48;88.47;155854.47;5066918;28;20434;-84
2022/09/05 01:53:40;;;;;;;4.93;3.50;;;;;;;17.45;89.01;155845.34;5051846;28;20538;-84
2022/09/05 01:56:33;;;;;;;4.40;4.00;;;;;;;17.47;88.58;155850.56;5051705;28;20463;-84
2022/09/05 01:59:16;;;;;;;3.87;3.57;;;;;;;17.41;89.04;155834.94;5051783;28;20439;-84
2022/09/05 02:02:01;;;;;;;4.17;3.20;;;;;;;17.43;91.40;155841.44;5050046;28;20526;-84
2022/09/05 02:04:55;;;;;;;3.80;3.50;;;;;;;17.37;91.89;155825.81;5067216;28;20438;-84
2022/09/05 02:07:30;;;;;;;3.20;2.90;;;;;;;17.31;93.74;155808.91;5047153;28;20569;-84
2022/09/05 02:10:36;;;;;;;3.00;2.70;;;;;;;17.19;93.64;155778.97;5051616;28;20769;-84
2022/09/05 02:13:12;;;;;;;3.50;3.20;;;;;;;17.12;94.67;155759.47;5049577;28;20577;-84
2022/09/05 02:15:44;;;;;;;3.60;3.20;;;;;;;17.04;96.36;155741.25;5066771;28;20464;-84
2022/09/05 02:18:14;;;;;;;4.20;3.80;;;;;;;17.00;95.29;155730.81;5051737;28;20542;-84
2022/09/05 02:20:46;;;;;;;5.70;3.27;;;;;;;16.96;97.20;155719.13;5051034;28;20423;-84
2022/09/05 02:23:25;;;;;;;3.53;3.00;;;;;;;16.90;96.63;155704.81;5051383;28;20441;-84
2022/09/05 02:25:56;;;;;;;4.60;3.40;;;;;;;16.86;96.02;155694.41;5051563;28;20514;-84
2022/09/05 02:28:27;;;;;;;3.90;3.60;;;;;;;16.79;97.43;155676.19;5051638;28;20447;-84
2022/09/05 02:31:02;;;;;;;4.60;3.90;;;;;;;16.78;97.10;155672.28;5066887;28;20433;-84
2022/09/05 02:33:30;;;;;;;3.90;3.50;;;;;;;16.78;97.16;155672.28;5055153;28;20505;-84
2022/09/05 02:36:06;;;;;;;4.87;3.60;;;;;;;16.74;97.32;155661.88;5055151;28;20427;-84
2022/09/05 02:38:37;;;;;;;4.97;4.00;;;;;;;16.73;97.53;155659.28;5070499;28;20438;-84
2022/09/05 02:41:07;;;;;;;4.20;3.50;;;;;;;16.71;98.60;155655.34;5070274;28;20534;-84
2022/09/05 02:43:38;;;;;;;4.20;3.87;;;;;;;16.65;97.60;155638.47;5053914;28;20542;-84
2022/09/05 02:46:09;;;;;;;3.40;3.10;;;;;;;16.64;98.93;155637.16;5070328;28;20439;-84
2022/09/05 02:48:50;;;;;;;3.90;3.50;;;;;;;16.63;99.35;155634.53;5053277;28;20508;-83
2022/09/05 02:51:20;;;;;;;4.17;3.77;;;;;;;16.63;98.43;155633.22;5069837;28;20431;-84
2022/09/05 02:53:50;;;;;;;4.37;3.90;;;;;;;16.63;98.36;155634.53;5070209;28;20566;-84
2022/09/05 02:56:31;;;;;;;4.00;3.60;;;;;;;16.60;98.64;155625.47;5070166;28;20443;-84
2022/09/05 02:59:05;;;;;;;4.27;3.50;;;;;;;16.57;97.99;155617.66;5070464;28;20930;-84
2022/09/05 03:01:55;;;;;;;4.20;3.80;;;;;;;16.54;99.43;155611.16;5054336;28;20445;-84
2022/09/05 03:04:29;;;;;;;4.70;4.30;;;;;;;16.51;99.24;155603.28;5055161;28;20478;-84
2022/09/05 03:07:07;;;;;;;5.00;3.87;;;;;;;16.49;99.61;155598.09;5054668;28;20546;-84
2022/09/05 03:09:44;;;;;;;5.73;3.97;;;;;;;16.45;100.00;155587.66;5053257;28;20480;-84
2022/09/05 03:12:49;;;;;;;4.63;3.40;;;;;;;16.42;100.00;155581.16;5069818;28;20702;-84
2022/09/05 03:15:45;;;;;;;4.63;4.10;;;;;;;16.41;99.67;155578.56;5052831;28;20554;-84
2022/09/05 03:18:45;;;;;;;5.80;4.17;;;;;;;16.38;99.18;155569.47;5053342;28;20447;-84
2022/09/05 03:21:42;;;;;;;4.03;3.67;;;;;;;16.35;99.94;155562.97;5052364;28;20443;-84
2022/09/05 03:24:46;;;;;;;5.73;4.03;;;;;;;16.30;100.00;155549.97;5053094;28;20496;-84
2022/09/05 03:28:02;;;;;;;6.50;3.90;;;;;;;16.24;100.00;155534.34;5053095;28;20629;-84
2022/09/05 03:30:39;;;;;;;4.50;4.10;;;;;;;16.18;100.00;155517.44;5052916;28;20484;-84
2022/09/05 03:33:22;;;;;;;5.40;4.07;;;;;;;16.15;100.00;155509.66;5052536;28;20446;-85
2022/09/05 03:36:20;;;;;;;4.60;4.20;;;;;;;16.12;100.00;155501.88;5054131;28;20451;-84
2022/09/05 03:39:22;;;;;;;4.43;3.43;;;;;;;16.07;100.00;155490.13;5052710;28;20447;-84
2022/09/05 03:42:17;;;;;;;4.50;4.10;;;;;;;16.04;100.00;155482.38;5033387;28;20412;-84
2022/09/05 03:44:58;;;;;;;4.20;3.80;;;;;;;16.04;100.00;155481.06;5019592;28;20454;-84
2022/09/05 03:47:57;;;;;;;4.53;4.03;;;;;;;16.01;100.00;155474.56;5033846;28;20456;-84
2022/09/05 03:50:29;;;;;;;4.50;4.10;;;;;;;16.01;100.00;155474.56;5011122;28;20463;-84
2022/09/05 03:53:31;;;;;;;4.33;3.90;;;;;;;16.02;100.00;155477.13;5048950;28;20533;-84
2022/09/05 03:56:13;;;;;;;5.83;4.63;;;;;;;16.04;100.00;155482.38;5034437;28;20432;-84
2022/09/05 03:58:55;;;;;;;5.70;4.90;;;;;;;16.07;100.00;155488.88;5069263;28;20486;-84
2022/09/05 04:01:25;;;;;;;4.43;4.03;;;;;;;16.05;100.00;155483.63;5053351;28;20442;-84
2022/09/05 04:03:55;;;;;;;4.10;3.70;;;;;;;16.08;100.00;155491.44;5069109;28;20453;-84
2022/09/05 04:06:26;;;;;;;4.97;4.47;;;;;;;16.10;100.00;155497.94;5052086;28;20957;-85
2022/09/05 04:09:01;;;;;;;4.87;4.33;;;;;;;16.07;100.00;155490.13;5069131;28;20490;-85
2022/09/05 04:11:34;;;;;;;5.23;4.30;;;;;;;16.05;100.00;155483.63;5068402;28;20534;-85
2022/09/05 04:14:05;;;;;;;4.80;4.30;;;;;;;16.03;100.00;155478.44;5068415;28;20475;-84
2022/09/05 04:16:33;;;;;;;4.47;4.03;;;;;;;16.04;100.00;155482.38;5052361;28;20969;-84
2022/09/05 04:19:09;;;;;;;4.57;4.13;;;;;;;16.00;100.00;155471.94;5052308;28;20439;-84
2022/09/05 04:21:43;;;;;;;4.57;4.17;;;;;;;15.99;100.00;155468.06;5051491;28;20933;-84
2022/09/05 04:24:14;;;;;;;4.60;4.20;;;;;;;15.94;100.00;155456.31;5052210;28;20453;-85
2022/09/05 04:27:10;;;;;;;4.50;4.10;;;;;;;15.92;100.00;155449.81;5051947;28;20439;-78
2022/09/05 04:29:45;;;;;;;5.53;4.47;;;;;;;15.88;100.00;155439.44;5051640;28;20485;-77
2022/09/05 04:32:18;;;;;;;4.97;4.57;;;;;;;15.89;100.00;155442.00;5052565;28;20426;-78
2022/09/05 04:34:54;;;;;;;5.93;4.27;;;;;;;15.85;100.00;155432.94;5068449;28;20844;-78
2022/09/05 04:37:35;;;;;;;4.80;4.40;;;;;;;15.87;100.00;155436.81;5053910;28;20455;-78
2022/09/05 04:40:32;;;;;;;5.30;4.80;;;;;;;15.90;100.00;155444.63;5068222;28;20537;-75
2022/09/05 04:43:02;;;;;;;5.00;4.20;;;;;;;15.87;100.00;155438.13;5052459;28;20439;-78
2022/09/05 04:45:33;;;;;;;5.30;4.80;;;;;;;15.91;100.00;155447.25;5052687;28;20433;-76
2022/09/05 04:48:01;;;;;;;5.27;4.77;;;;;;;15.93;100.00;155453.75;5052400;28;20525;-78
2022/09/05 04:50:28;;;;;;;5.40;4.50;;;;;;;15.91;100.00;155448.56;5067911;28;20942;-77
2022/09/05 04:53:05;;;;;;;4.70;4.30;;;;;;;15.84;100.00;155430.31;5067399;28;20505;-77
2022/09/05 04:55:38;;;;;;;5.50;4.23;;;;;;;15.82;100.00;155426.44;5067383;28;20903;-77
2022/09/05 04:58:11;;;;;;;8.63;5.00;;;;;;;15.82;100.00;155426.44;5067698;28;20493;-78
2022/09/05 05:00:42;;;;;;;5.07;4.67;;;;;;;15.85;100.00;155432.94;5067794;28;20530;-78
2022/09/05 05:03:12;;;;;;;5.10;4.67;;;;;;;15.89;100.00;155442.00;5067433;28;20490;-75
2022/09/05 05:05:53;;;;;;;6.07;5.10;;;;;;;15.91;100.00;155448.56;5067659;28;20470;-78
2022/09/05 05:08:23;;;;;;;5.60;5.10;;;;;;;15.93;100.00;155452.44;5052412;28;20431;-78
2022/09/05 05:10:52;;;;;;;6.60;5.07;;;;;;;15.95;100.00;155458.94;5067655;28;20701;-78
2022/09/05 05:13:24;;;;;;;6.03;5.53;;;;;;;15.92;100.00;155451.13;5062300;28;20474;-78
2022/09/05 05:15:54;;;;;;;5.30;4.80;;;;;;;15.96;100.00;155460.25;5047476;28;20509;-78
2022/09/05 05:18:26;;;;;;;5.20;4.70;;;;;;;16.01;100.00;155473.25;5032101;28;20539;-78
2022/09/05 05:20:58;;;;;;;5.63;4.83;;;;;;;16.02;100.00;155475.88;5048518;28;20439;-78
2022/09/05 05:23:31;;;;;;;5.87;5.37;;;;;;;16.04;100.00;155482.38;5067226;28;20500;-77
2022/09/05 05:26:01;;;;;;;5.37;4.87;;;;;;;16.08;100.00;155491.44;5052133;28;20479;-78
2022/09/05 05:28:42;;;;;;;6.23;4.77;;;;;;;16.15;100.00;155509.66;5067375;28;20950;-77
2022/09/05 05:31:12;;;;;;;5.10;4.60;;;;;;;16.20;100.00;155522.66;5067379;28;20475;-75
2022/09/05 05:33:40;;;;;;;5.70;4.57;;;;;;;16.22;100.00;155527.84;5067392;28;20545;-78
2022/09/05 05:36:09;;;;;;;5.60;4.97;;;;;;;16.24;100.00;155533.06;5067561;28;20539;-78
2022/09/05 05:38:42;;;;;;;5.83;5.33;;;;;;;16.24;100.00;155533.06;5067156;28;20512;-78
2022/09/05 05:41:17;;;;;;;5.33;4.80;;;;;;;16.28;100.00;155544.75;5067307;28;20441;-75
2022/09/05 05:43:46;;;;;;;5.73;5.23;;;;;;;16.33;100.00;155556.47;5050660;28;20446;-75
2022/09/05 05:46:15;;;;;;;5.83;5.30;;;;;;;16.41;100.00;155578.56;5067206;28;20447;-77
2022/09/05 05:48:44;;;;;;;6.60;5.40;;;;;;;16.49;100.00;155598.09;5067046;28;20474;-77
2022/09/05 05:51:20;;;;;;;7.53;5.57;;;;;;;16.62;100.00;155631.97;5067175;28;20443;-77
2022/09/05 05:53:54;;;;;;;6.23;5.63;;;;;;;16.77;100.00;155670.97;5051839;28;20430;-77
2022/09/05 05:56:35;;;;;;;6.80;6.10;;;;;;;16.91;100.00;155707.44;5050176;28;20952;-77
2022/09/05 05:59:12;;;;;;;6.00;5.40;;;;;;;17.10;100.00;155754.25;5067200;28;20800;-77
2022/09/05 06:02:05;;;;;;;7.30;6.60;;;;;;;17.34;100.00;155816.72;5051357;28;20488;-75
2022/09/05 06:05:10;;;;;;;8.53;6.30;;;;;;;17.65;100.00;155897.47;5067328;28;20748;-75
2022/09/05 06:07:45;;;;;;;6.27;5.67;;;;;;;17.98;100.00;155982.06;5070935;28;20484;-75
2022/09/05 06:10:41;;;;;;;7.27;5.57;;;;;;;18.21;98.32;156043.28;5071240;28;20535;-75
2022/09/05 06:13:33;;;;;;;7.10;6.13;;;;;;;18.47;97.30;156108.44;5052744;28;20458;-75
2022/09/05 06:16:19;;;;;;;6.00;5.40;;;;;;;18.67;95.56;156161.88;5054224;28;20546;-75
2022/09/05 06:19:40;;;;;;;6.30;5.70;;;;;;;18.66;93.57;156158.00;5054356;28;20855;-75
2022/09/05 06:22:22;;;;;;;5.67;5.17;;;;;;;18.66;92.16;156158.00;4972459;28;20441;-75
2022/09/05 06:25:19;;;;;;;7.00;5.73;;;;;;;18.73;92.25;156176.22;5013400;28;20531;-75
2022/09/05 06:27:58;;;;;;;5.60;5.10;;;;;;;18.82;92.04;156199.69;5047428;28;20477;-75
2022/09/05 06:30:25;;;;;;;7.47;5.50;;;;;;;19.18;91.60;156292.19;5053850;28;20967;-75
2022/09/05 06:33:07;;;;;;;6.57;5.17;;;;;;;19.36;91.01;156340.41;5053598;28;20441;-75
2022/09/05 06:35:46;;;;;;;6.00;4.80;;;;;;;19.63;88.77;156408.22;5037171;28;20494;-75
2022/09/05 06:38:26;;;;;;;5.03;4.53;;;;;;;19.90;87.59;156478.66;5053923;28;20481;-75
2022/09/05 06:40:58;;;;;;;5.23;4.70;;;;;;;20.27;85.64;156575.19;5055217;28;20415;-75
2022/09/05 06:43:34;;;;;;;5.20;4.70;;;;;;;20.63;84.07;156669.09;5054791;28;20431;-75
2022/09/05 06:46:09;;;;;;;5.90;4.23;;;;;;;20.89;82.38;156735.63;5053632;28;20450;-76
2022/09/05 06:48:45;;;;;;;5.17;4.67;;;;;;;21.26;81.28;156830.94;5069788;28;20481;-76
2022/09/05 06:51:29;;;;;;;4.87;4.47;;;;;;;21.64;78.32;156930.16;5053683;28;20411;-76
2022/09/05 06:54:30;;;;;;;4.60;4.20;;;;;;;21.91;76.88;156998.09;5070013;28;20545;-76
2022/09/05 06:57:22;;;;;;;5.43;4.70;;;;;;;22.12;75.14;157052.94;5054763;28;20492;-76
2022/09/05 07:00:05;;;;;;;4.73;3.87;;;;;;;22.33;74.68;157107.78;5055205;28;20541;-76
2022/09/05 07:02:35;;;;;;;4.47;4.03;;;;;;;22.36;73.96;157115.63;5069500;28;20434;-76
2022/09/05 07:05:13;;;;;;;5.33;3.70;;;;;;;22.53;73.52;157158.75;5069877;28;20431;-76
2022/09/05 07:07:44;;;;;;;4.37;3.97;;;;;;;22.60;73.47;157177.03;5069887;28;20839;-76
2022/09/05 07:10:16;;;;;;;4.57;3.83;;;;;;;22.75;72.35;157216.25;5070057;28;20454;-76
2022/09/05 07:12:46;;;;;;;9.47;5.17;;;;;;;22.96;72.25;157272.44;5053899;28;20423;-76
2022/09/05 07:15:15;;;;;;;4.60;4.07;;;;;;;23.33;71.05;157366.53;5054427;28;20491;-76
2022/09/05 07:17:51;;;;;;;4.47;4.00;;;;;;;23.65;69.16;157450.25;5053673;28;20467;-76
2022/09/05 07:20:23;;;;;;;4.40;4.00;;;;;;;24.07;68.25;157560.06;5053089;28;20434;-76
2022/09/05 07:22:56;;;;;;;4.23;3.40;;;;;;;24.40;67.25;157643.81;5052541;28;20939;-76
2022/09/05 07:25:26;;;;;;;3.70;3.20;;;;;;;24.71;66.52;157724.91;5054410;28;20435;-76
2022/09/05 07:27:55;;;;;;;5.70;3.40;;;;;;;24.89;64.75;157772.03;5054389;28;20542;-76
2022/09/05 07:30:22;;;;;;;5.50;3.77;;;;;;;25.11;64.27;157828.31;5054233;28;20488;-76
2022/09/05 07:32:52;;;;;;;4.97;3.23;;;;;;;25.49;62.38;157926.53;5052291;28;20570;-76
2022/09/05 07:35:23;;;;;;;3.90;3.50;;;;;;;25.55;61.33;157942.25;5069347;28;20467;-77
2022/09/05 07:37:59;;;;;;;4.50;3.17;;;;;;;25.83;61.16;158015.53;5053816;28;20546;-76
2022/09/05 07:40:26;;;;;;;5.60;4.00;;;;;;;25.97;60.79;158052.22;5069776;28;20473;-76
2022/09/05 07:42:56;;;;;;;3.43;3.13;;;;;;;26.21;60.39;158113.81;5069336;28;20545;-77
2022/09/05 07:45:26;;;;;;;3.67;3.37;;;;;;;26.27;58.35;158129.47;5054261;28;20423;-77
2022/09/05 07:47:58;;;;;;;4.20;3.77;;;;;;;26.45;57.92;158177.94;5053575;28;20976;-77
2022/09/05 07:50:28;;;;;;;5.60;3.67;;;;;;;26.41;58.86;158167.47;5053787;28;20462;-77
2022/09/05 07:52:56;;;;;;;3.80;3.50;;;;;;;26.32;57.75;158143.88;5068794;28;20439;-77
2022/09/05 07:55:26;;;;;;;5.03;3.80;;;;;;;26.41;59.55;158167.47;5068906;28;20558;-77
2022/09/05 07:57:56;;;;;;;6.80;3.40;;;;;;;26.52;58.60;158196.31;5053624;28;20442;-77
2022/09/05 08:00:25;;;;;;;5.97;4.00;;;;;;;26.56;57.88;158206.75;5068977;28;20435;-77
2022/09/05 08:02:52;;;;;;;3.93;3.30;;;;;;;26.81;56.65;158271.00;5068627;28;20534;-77
2022/09/05 08:05:21;;;;;;;5.83;3.10;;;;;;;26.88;58.03;158289.34;5035457;28;20497;-77
2022/09/05 08:07:51;;;;;;;3.20;3.00;;;;;;;26.75;55.82;158253.91;5068792;28;20770;-77
2022/09/05 08:10:21;;;;;;;4.67;3.27;;;;;;;26.79;56.67;158264.47;5068722;28;20441;-77
2022/09/05 08:12:51;;;;;;;5.23;3.30;;;;;;;26.81;56.19;158271.00;5067987;28;20427;-77
2022/09/05 08:15:21;;;;;;;4.13;2.90;;;;;;;27.01;54.02;158323.38;5068688;28;20454;-77
2022/09/05 08:18:00;;;;;;;3.53;3.23;;;;;;;27.19;52.23;158369.28;5068650;28;20430;-77
2022/09/05 08:20:35;;;;;;;3.40;3.10;;;;;;;26.70;54.15;158240.81;5068631;28;20423;-76
2022/09/05 08:23:09;;;;;;;4.13;2.80;;;;;;;26.50;54.41;158191.03;5051434;28;20446;-77
2022/09/05 08:25:38;;;;;;;5.50;4.00;;;;;;;26.67;55.65;158232.94;5068728;28;20431;-76
2022/09/05 08:28:08;;;;;;;3.47;3.17;;;;;;;26.72;54.73;158246.03;5067611;28;20455;-77
2022/09/05 08:30:40;;;;;;;3.37;3.07;;;;;;;26.71;54.55;158244.78;5068022;28;20534;-76
2022/09/05 08:33:11;;;;;;;3.33;3.10;;;;;;;26.80;54.87;158267.06;5052737;28;20502;-76
2022/09/05 08:35:41;;;;;;;4.87;3.87;;;;;;;26.82;55.53;158272.31;5052879;28;20486;-76
2022/09/05 08:38:10;;;;;;;3.77;3.43;;;;;;;27.02;55.55;158326.03;5052996;28;20542;-77
2022/09/05 08:40:39;;;;;;;5.10;4.33;;;;;;;27.37;55.36;158415.13;5052811;28;20435;-76
2022/09/05 08:43:13;;;;;;;6.23;4.00;;;;;;;27.51;54.41;158451.88;5067951;28;20450;-77
2022/09/05 08:45:42;;;;;;;5.17;4.10;;;;;;;27.39;55.61;158421.69;5052605;28;20431;-76
2022/09/05 08:48:16;;;;;;;3.77;3.30;;;;;;;27.26;54.92;158387.59;5067884;28;20805;-77
2022/09/05 08:51:02;;;;;;;3.33;3.00;;;;;;;27.33;54.33;158405.94;5034738;28;20439;-77
2022/09/05 08:53:46;;;;;;;3.67;3.33;;;;;;;27.27;55.95;158390.19;5067521;28;20542;-76
2022/09/05 08:56:17;;;;;;;4.50;3.47;;;;;;;27.36;54.53;158413.81;5052632;28;20474;-77
2022/09/05 08:58:52;;;;;;;4.10;3.80;;;;;;;27.19;55.92;158369.28;5067787;28;20545;-77
2022/09/05 09:01:28;;;;;;;6.03;3.33;;;;;;;27.15;55.75;158360.09;5067799;28;20442;-77
2022/09/05 09:04:11;;;;;;;4.80;3.40;;;;;;;27.04;55.41;158329.94;5067504;28;20458;-77
2022/09/05 09:06:53;;;;;;;3.73;3.43;;;;;;;27.02;54.53;158326.03;5051344;28;20435;-77
2022/09/05 09:09:32;;;;;;;4.23;3.50;;;;;;;26.92;55.36;158298.53;5052112;28;20439;-77
2022/09/05 09:12:04;;;;;;;3.83;3.00;;;;;;;26.81;54.91;158269.69;5052108;28;20447;-77
2022/09/05 09:14:37;;;;;;;3.90;3.13;;;;;;;26.83;56.99;158276.25;5050831;28;20451;-77
2022/09/05 09:17:12;;;;;;;4.13;3.83;;;;;;;26.69;57.59;158238.22;5034294;28;20558;-77
2022/09/05 09:19:46;;;;;;;4.13;3.77;;;;;;;26.57;56.33;158209.41;5052475;28;20441;-77
2022/09/05 09:22:20;;;;;;;8.00;3.30;;;;;;;26.59;57.54;158214.63;5067143;28;20529;-77
2022/09/05 09:24:56;;;;;;;4.97;3.53;;;;;;;26.56;56.71;158206.75;5067511;28;20526;-77
2022/09/05 09:27:28;;;;;;;3.80;3.33;;;;;;;26.74;57.50;158251.31;5067435;28;20529;-77
2022/09/05 09:29:59;;;;;;;4.50;3.37;;;;;;;26.62;56.99;158221.16;5052293;28;20506;-77
2022/09/05 09:32:28;;;;;;;3.70;3.20;;;;;;;26.51;57.92;158192.34;5052097;28;20412;-77
2022/09/05 09:34:57;;;;;;;3.77;3.40;;;;;;;26.35;56.64;158150.44;5050501;28;20463;-77
2022/09/05 09:37:39;;;;;;;3.97;3.50;;;;;;;26.57;56.87;158209.41;5052203;28;20537;-77
2022/09/05 09:40:41;;;;;;;3.90;3.50;;;;;;;26.37;57.68;158155.72;5066890;28;20489;-77
2022/09/05 09:43:17;;;;;;;5.03;3.70;;;;;;;26.12;58.81;158091.47;5055967;28;20555;-77
2022/09/05 09:45:58;;;;;;;4.70;3.40;;;;;;;26.35;57.78;158150.44;5067189;28;20964;-77
2022/09/05 09:49:06;;;;;;;4.10;3.80;;;;;;;26.17;57.43;158104.63;5051449;28;20871;-77
2022/09/05 09:51:54;;;;;;;3.80;3.40;;;;;;;26.14;61.35;158095.44;5067440;28;20450;-77
2022/09/05 09:55:13;;;;;;;3.40;3.10;;;;;;;26.15;56.75;158099.41;5066571;28;20447;-77
2022/09/05 09:58:03;;;;;;;4.30;3.40;;;;;;;26.09;58.73;158083.63;5051951;28;20518;-77
2022/09/05 10:00:37;;;;;;;3.80;3.50;;;;;;;26.05;59.00;158073.16;5050297;28;20437;-77
2022/09/05 10:03:28;;;;;;;4.23;3.90;;;;;;;26.02;58.26;158065.31;5051211;28;20451;-77
2022/09/05 10:06:31;;;;;;;4.00;3.60;;;;;;;25.76;57.16;157997.22;5043562;28;20431;-77
2022/09/05 10:09:10;;;;;;;3.60;3.30;;;;;;;25.94;57.96;158045.66;5050435;28;20481;-77
2022/09/05 10:11:38;;;;;;;4.00;3.70;;;;;;;26.06;58.42;158075.75;5066571;28;20538;-77
2022/09/05 10:14:51;;;;;;;4.50;3.80;;;;;;;26.03;58.39;158067.88;5066704;28;20451;-77
2022/09/05 10:17:59;;;;;;;3.70;3.40;;;;;;;25.70;60.41;157982.81;5066821;28;20470;-77
2022/09/05 10:20:39;;;;;;;3.83;3.13;;;;;;;25.87;58.52;158027.31;5043117;28;20500;-77
2022/09/05 10:23:44;;;;;;;4.40;3.70;;;;;;;25.83;60.58;158015.53;5051292;28;20438;-77
2022/09/05 10:26:44;;;;;;;5.07;3.90;;;;;;;25.90;59.28;158033.84;5050100;28;20488;-77
2022/09/05 10:29:15;;;;;;;5.03;4.03;;;;;;;25.88;59.10;158029.94;5062050;28;20492;-77
2022/09/05 10:31:55;;;;;;;4.23;3.90;;;;;;;25.82;58.21;158012.91;5066754;28;20439;-77
2022/09/05 10:34:24;;;;;;;4.80;2.93;;;;;;;25.96;54.74;158049.59;5051371;28;20516;-77
2022/09/05 10:36:56;;;;;;;3.80;3.50;;;;;;;25.99;55.15;158058.75;5051139;28;20498;-77
2022/09/05 10:39:26;;;;;;;3.60;3.30;;;;;;;26.07;55.17;158077.06;5066995;28;20550;-77
2022/09/05 10:41:57;;;;;;;3.37;3.07;;;;;;;25.99;54.46;158057.44;5051201;28;21017;-77
2022/09/05 10:44:34;;;;;;;3.20;2.90;;;;;;;26.18;52.53;158105.94;5066523;28;21041;-77
2022/09/05 10:47:10;;;;;;;4.10;2.80;;;;;;;26.20;52.45;158112.47;5033408;28;20497;-77
2022/09/05 10:49:42;;;;;;;3.60;3.30;;;;;;;26.21;53.59;158115.06;5051142;28;20477;-77
2022/09/05 10:52:12;;;;;;;3.20;2.90;;;;;;;26.29;51.40;158136.03;5052554;28;20465;-77
2022/09/05 10:54:56;;;;;;;4.80;3.30;;;;;;;26.31;51.87;158141.31;5070046;28;20548;-77
2022/09/05 10:57:35;;;;;;;3.50;3.03;;;;;;;26.17;52.81;158104.63;5054867;28;20805;-77
2022/09/05 11:00:25;;;;;;;3.40;3.10;;;;;;;26.15;53.03;158099.41;5054760;28;20421;-77
2022/09/05 11:02:55;;;;;;;3.90;2.90;;;;;;;26.27;52.08;158130.81;5069728;28;20462;-77
2022/09/05 11:05:23;;;;;;;4.70;2.90;;;;;;;26.26;51.27;158126.88;5070005;28;21016;-77
2022/09/05 11:07:58;;;;;;;3.10;2.80;;;;;;;26.26;52.08;158128.22;5070081;28;20438;-77
2022/09/05 11:10:31;;;;;;;4.40;3.10;;;;;;;26.38;51.48;158159.63;5054371;28;20435;-77
2022/09/05 11:13:09;;;;;;;2.97;2.77;;;;;;;26.41;52.10;158167.47;5054236;28;20541;-77
2022/09/05 11:15:50;;;;;;;3.03;2.73;;;;;;;26.29;51.70;158136.03;5036358;28;20431;-77
2022/09/05 11:18:26;;;;;;;3.47;3.17;;;;;;;26.13;59.36;158092.84;5053135;28;20525;-77
2022/09/05 11:21:00;;;;;;;2.93;2.73;;;;;;;26.06;50.49;158075.75;5054360;28;20450;-77
2022/09/05 11:23:31;;;;;;;2.90;2.67;;;;;;;25.95;48.84;158048.25;5052895;28;20496;-77
2022/09/05 11:26:00;;;;;;;3.13;2.63;;;;;;;26.03;50.17;158067.88;5053067;28;20427;-77
2022/09/05 11:28:37;;;;;;;3.07;2.77;;;;;;;26.29;48.41;158136.03;5069774;28;20486;-77
2022/09/05 11:31:09;;;;;;;4.13;3.10;;;;;;;26.38;49.97;158159.63;5052998;28;20541;-77
2022/09/05 11:33:52;;;;;;;3.30;3.00;;;;;;;26.26;49.06;158128.22;5052661;28;20439;-77
2022/09/05 11:36:22;;;;;;;3.13;2.87;;;;;;;25.98;49.24;158054.81;5053866;28;20469;-77
2022/09/05 11:39:00;;;;;;;3.50;3.13;;;;;;;25.97;50.07;158052.22;5052771;28;20449;-77
2022/09/05 11:41:54;;;;;;;3.60;3.00;;;;;;;26.25;49.81;158124.25;5069506;28;20931;-77
2022/09/05 11:44:28;;;;;;;5.03;3.23;;;;;;;26.41;49.92;158166.16;5054203;28;20945;-77
2022/09/05 11:47:28;;;;;;;3.10;2.80;;;;;;;26.43;50.46;158171.38;5054344;28;20415;-77
2022/09/05 11:50:28;;;;;;;3.10;2.90;;;;;;;26.44;50.12;158175.34;5051137;28;20509;-77
2022/09/05 11:53:24;;;;;;;3.27;2.97;;;;;;;26.48;48.38;158185.81;5057952;28;20450;-77
2022/09/05 11:56:11;;;;;;;3.40;3.10;;;;;;;26.23;50.39;158120.34;5052239;28;20453;-77
2022/09/05 11:59:18;;;;;;;3.60;3.30;;;;;;;26.41;50.29;158166.16;5054006;28;20435;-77
2022/09/05 12:01:53;;;;;;;2.83;2.57;;;;;;;26.39;51.25;158160.94;5053687;28;20454;-77
2022/09/05 12:04:41;;;;;;;3.07;2.80;;;;;;;26.32;53.73;158143.88;5068736;28;20438;-77
2022/09/05 12:07:12;;;;;;;3.83;3.53;;;;;;;26.35;49.66;158151.75;5053610;28;20673;-77
2022/09/05 12:09:56;;;;;;;3.73;3.20;;;;;;;26.48;49.78;158184.47;5068932;28;20447;-77
2022/09/05 12:12:34;;;;;;;3.60;3.30;;;;;;;26.47;49.77;158183.22;5033452;28;20431;-77
2022/09/05 12:15:15;;;;;;;3.20;2.90;;;;;;;26.46;51.14;158180.56;5048720;28;20486;-77